Time;durP1;ratioP1;P1;durP2;ratioP2;P2;SDS_P1;SDS_P2;PMS_P1;PMS_P2;Temp;Humidity;BMP_temperature;BMP_pressure;BME280_temperature;BME280_humidity;BME280_pressure;Samples;Min_cycle;Max_cycle;Signal;HPM_P1;HPM_P2
2024/03/22 00:01:12;;;;;;;73.72;37.33;;;12.90;99.90;;;13.10;100.00;101946.69;5075961;28;20390;-69
2024/03/22 00:03:38;;;;;;;75.65;36.97;;;12.90;99.90;;;13.07;100.00;101949.31;5076361;28;20039;-70
2024/03/22 00:06:06;;;;;;;76.50;38.08;;;12.70;99.90;;;13.01;100.00;101938.63;5076362;28;20097;-69
2024/03/22 00:08:32;;;;;;;82.28;39.70;;;12.70;99.90;;;13.06;100.00;101944.91;5076035;28;20071;-70
2024/03/22 00:11:00;;;;;;;81.75;40.50;;;12.70;99.90;;;13.02;100.00;101932.47;5075725;28;20044;-69
2024/03/22 00:13:26;;;;;;;86.50;41.30;;;12.70;99.90;;;12.97;100.00;101934.19;5075735;28;20153;-71
2024/03/22 00:15:54;;;;;;;81.60;40.45;;;12.70;99.90;;;12.99;100.00;101934.22;5059082;28;20040;-70
2024/03/22 00:18:21;;;;;;;90.10;41.47;;;12.60;99.90;;;12.80;100.00;101932.38;5075904;28;20044;-70
2024/03/22 00:20:49;;;;;;;87.93;42.78;;;12.50;99.90;;;12.70;100.00;101929.69;5075622;28;20409;-70
2024/03/22 00:23:15;;;;;;;88.53;42.40;;;12.40;99.90;;;12.72;100.00;101932.34;5058796;28;20103;-72
2024/03/22 00:25:43;;;;;;;101.97;45.00;;;12.40;99.90;;;12.65;100.00;101918.19;5075776;28;20044;-72
2024/03/22 00:28:09;;;;;;;95.50;43.22;;;12.30;99.90;;;12.68;100.00;101904.91;5075517;28;20043;-72
2024/03/22 00:30:36;;;;;;;87.05;41.75;;;12.30;99.90;;;12.72;100.00;101910.25;5075466;28;20032;-71
2024/03/22 00:33:03;;;;;;;89.90;41.80;;;12.40;99.90;;;12.73;100.00;101904.03;5075625;28;20400;-71
2024/03/22 00:35:32;;;;;;;97.55;43.63;;;12.40;99.90;;;12.73;100.00;101912.00;5075461;28;20052;-71
2024/03/22 00:37:58;;;;;;;97.47;43.95;;;12.40;99.90;;;12.72;100.00;101903.13;5075230;28;20390;-73
2024/03/22 00:40:26;;;;;;;96.28;43.67;;;12.40;99.90;;;12.66;100.00;101897.81;5075424;28;20431;-71
2024/03/22 00:42:52;;;;;;;95.45;43.33;;;12.30;99.90;;;12.63;100.00;101889.84;5058751;28;20044;-71
2024/03/22 00:45:19;;;;;;;100.63;43.72;;;12.30;99.90;;;12.48;100.00;101857.94;5075112;28;20036;-72
2024/03/22 00:47:46;;;;;;;97.50;43.03;;;12.30;99.90;;;12.55;100.00;101881.84;5075368;28;20089;-71
2024/03/22 00:50:13;;;;;;;83.82;39.38;;;12.20;99.90;;;12.46;100.00;101865.00;5075126;28;20123;-71
2024/03/22 00:52:41;;;;;;;88.70;38.55;;;12.10;99.90;;;12.44;100.00;101877.38;5075329;28;20048;-71
2024/03/22 00:55:09;;;;;;;83.30;39.75;;;12.10;99.90;;;12.53;100.00;101869.44;5074764;28;20052;-70
2024/03/22 00:57:35;;;;;;;93.30;41.55;;;12.20;99.90;;;12.56;100.00;101866.84;5074336;28;20051;-71
2024/03/22 01:00:04;;;;;;;97.07;41.90;;;12.20;99.90;;;12.52;100.00;101876.53;5075015;28;20059;-74
2024/03/22 01:02:30;;;;;;;90.97;42.75;;;12.20;99.90;;;12.53;100.00;101866.78;5074864;28;20051;-71
2024/03/22 01:04:58;;;;;;;88.53;40.70;;;12.20;99.90;;;12.55;100.00;101867.69;5074213;28;20047;-71
2024/03/22 01:07:24;;;;;;;78.85;38.88;;;12.20;99.90;;;12.65;100.00;101872.16;5074276;28;20090;-71
2024/03/22 01:09:53;;;;;;;76.82;38.28;;;12.30;99.90;;;12.61;100.00;101865.97;5074793;28;20106;-71
2024/03/22 01:12:19;;;;;;;71.45;37.05;;;12.30;99.90;;;12.73;100.00;101873.06;5057410;28;20401;-71
2024/03/22 01:14:47;;;;;;;70.55;36.03;;;12.40;99.90;;;12.74;100.00;101880.13;5073777;28;20048;-71
2024/03/22 01:17:13;;;;;;;58.70;32.33;;;12.40;99.90;;;12.52;100.00;101863.25;5056249;28;20040;-71
2024/03/22 01:19:41;;;;;;;59.83;31.70;;;12.30;99.90;;;12.57;100.00;101879.19;5072763;28;20052;-71
2024/03/22 01:22:07;;;;;;;56.35;32.25;;;12.20;99.90;;;12.45;100.00;101881.81;5056156;28;20409;-71
2024/03/22 01:24:35;;;;;;;51.80;31.65;;;12.20;99.90;;;12.40;100.00;101886.22;5073290;28;20047;-71
2024/03/22 01:27:04;;;;;;;56.95;33.67;;;12.10;99.90;;;12.38;100.00;101882.66;5056089;28;20059;-71
2024/03/22 01:29:31;;;;;;;57.25;33.22;;;12.10;99.90;;;12.41;100.00;101877.34;5072636;28;20040;-72
2024/03/22 01:31:58;;;;;;;58.22;32.75;;;12.00;99.90;;;12.47;100.00;101865.00;5072726;28;20040;-71
2024/03/22 01:34:25;;;;;;;56.35;32.38;;;12.10;99.90;;;12.52;100.00;101852.63;5073625;28;20048;-72
2024/03/22 01:36:52;;;;;;;54.97;32.72;;;12.20;99.90;;;12.45;100.00;101847.31;5077084;28;20113;-72
2024/03/22 01:39:21;;;;;;;62.50;32.92;;;12.10;99.90;;;12.41;100.00;101842.88;5060448;28;20122;-72
2024/03/22 01:41:47;;;;;;;59.67;33.35;;;12.10;99.90;;;12.47;100.00;101840.22;5076848;28;20119;-71
2024/03/22 01:44:17;;;;;;;54.90;32.15;;;12.10;99.90;;;12.31;100.00;101817.22;5076665;28;20036;-71
2024/03/22 01:46:44;;;;;;;53.92;32.50;;;12.10;99.90;;;12.27;100.00;101841.94;5076557;28;20059;-72
2024/03/22 01:49:15;;;;;;;52.38;31.70;;;12.00;99.90;;;12.31;100.00;101831.34;5076553;28;20062;-71
2024/03/22 01:51:42;;;;;;;;;;;12.00;99.90;;;12.26;100.00;101841.06;5077137;28;20401;-71
2024/03/22 01:54:10;;;;;;;63.42;33.50;;;12.00;99.90;;;12.24;100.00;101845.47;5059964;28;19924;-71
2024/03/22 01:56:38;;;;;;;53.67;31.42;;;12.00;99.90;;;12.26;100.00;101850.78;5059758;28;20089;-71
2024/03/22 01:59:06;;;;;;;60.85;33.33;;;11.90;99.90;;;12.25;100.00;101846.34;5076738;28;20118;-71
2024/03/22 02:01:35;;;;;;;54.70;31.25;;;11.90;99.90;;;12.30;100.00;101849.91;5076329;28;20072;-71
2024/03/22 02:04:03;;;;;;;59.17;32.65;;;12.00;99.90;;;11.99;100.00;101798.50;5076349;28;20044;-71
2024/03/22 02:06:29;;;;;;;58.65;31.45;;;12.00;99.90;;;12.29;100.00;101840.19;5076743;28;20047;-71
2024/03/22 02:08:58;;;;;;;50.30;30.25;;;12.00;99.90;;;12.32;100.00;101835.78;5076522;28;20044;-71
2024/03/22 02:11:26;;;;;;;59.05;30.08;;;12.00;99.90;;;12.35;100.00;101824.31;5076150;28;20050;-71
2024/03/22 02:13:53;;;;;;;54.97;31.73;;;12.00;99.90;;;12.38;100.00;101840.22;5059727;28;20040;-71
2024/03/22 02:16:20;;;;;;;60.42;32.10;;;12.00;99.90;;;12.21;100.00;101826.00;5076027;28;20044;-71
2024/03/22 02:18:49;;;;;;;62.33;32.22;;;11.90;99.90;;;12.12;100.00;101802.97;5076088;28;20043;-71
2024/03/22 02:21:15;;;;;;;53.47;30.90;;;11.90;99.90;;;12.35;100.00;101824.31;5075956;28;20161;-71
2024/03/22 02:23:44;;;;;;;59.83;30.88;;;12.00;99.90;;;12.35;100.00;101813.69;5075897;28;20051;-71
2024/03/22 02:26:10;;;;;;;56.55;30.88;;;12.00;99.90;;;12.31;100.00;101801.28;5076081;28;20044;-71
2024/03/22 02:28:38;;;;;;;59.95;29.38;;;12.00;99.90;;;12.29;100.00;101803.91;5059414;28;20515;-71
2024/03/22 02:31:04;;;;;;;59.08;30.42;;;11.90;99.90;;;12.32;100.00;101792.44;5076087;28;20039;-71
2024/03/22 02:33:32;;;;;;;63.65;32.90;;;12.00;99.90;;;12.27;100.00;101799.50;5075980;28;20090;-71
2024/03/22 02:35:59;;;;;;;61.42;34.63;;;11.90;99.90;;;12.25;100.00;101791.50;5076141;28;20043;-71
2024/03/22 02:38:26;;;;;;;56.75;33.17;;;11.90;99.90;;;12.34;100.00;101793.31;5075708;28;20495;-71
2024/03/22 02:40:55;;;;;;;63.05;33.55;;;12.00;99.90;;;12.32;100.00;101797.75;5075963;28;20131;-71
2024/03/22 02:43:22;;;;;;;55.65;33.00;;;12.00;99.90;;;12.35;100.00;101784.50;5075645;28;20143;-72
2024/03/22 02:45:49;;;;;;;63.60;32.97;;;12.00;99.90;;;11.63;100.00;101637.47;5075694;28;20684;-72
2024/03/22 02:48:16;;;;;;;65.28;32.53;;;12.10;99.90;;;12.45;100.00;101784.50;5075805;28;20040;-71
2024/03/22 02:50:43;;;;;;;55.22;30.17;;;12.10;99.90;;;12.34;100.00;101778.31;5075421;28;20044;-71
2024/03/22 02:53:09;;;;;;;56.50;31.33;;;12.10;99.90;;;12.39;100.00;101772.97;5075502;28;20089;-71
2024/03/22 02:55:41;;;;;;;51.50;30.02;;;12.00;99.90;;;12.37;100.00;101769.44;5072107;28;20056;-71
2024/03/22 02:58:09;;;;;;;56.08;30.77;;;12.10;99.90;;;12.31;100.00;101746.44;5072094;28;20525;-71
2024/03/22 03:00:38;;;;;;;53.83;30.40;;;12.00;99.90;;;12.34;100.00;101746.47;5071869;28;20051;-71
2024/03/22 03:03:05;;;;;;;58.35;31.45;;;12.00;99.90;;;12.38;100.00;101744.69;5072436;28;20473;-71
2024/03/22 03:05:32;;;;;;;54.72;30.25;;;12.00;99.90;;;12.36;100.00;101741.16;5072100;28;20041;-71
2024/03/22 03:07:59;;;;;;;59.63;30.05;;;12.00;99.90;;;12.32;100.00;101748.22;5071828;28;20037;-71
2024/03/22 03:10:27;;;;;;;52.75;30.23;;;12.00;99.90;;;12.32;100.00;101744.69;5071689;28;20468;-71
2024/03/22 03:12:54;;;;;;;53.72;28.75;;;11.90;99.90;;;12.12;100.00;101701.28;5071700;28;20044;-71
2024/03/22 03:15:23;;;;;;;50.15;27.67;;;12.00;99.90;;;12.27;100.00;101718.13;5071617;28;20398;-72
2024/03/22 03:17:51;;;;;;;56.50;28.40;;;12.00;99.90;;;12.26;100.00;101721.69;5071556;28;20040;-71
2024/03/22 03:20:19;;;;;;;51.67;24.98;;;12.00;99.90;;;12.27;100.00;101723.44;5071494;28;20037;-71
2024/03/22 03:22:45;;;;;;;50.05;25.05;;;12.00;99.90;;;12.31;100.00;101706.66;5071471;28;20055;-71
2024/03/22 03:25:12;;;;;;;45.42;22.85;;;12.00;99.90;;;12.33;100.00;101717.28;5071961;28;20051;-71
2024/03/22 03:27:39;;;;;;;47.78;23.33;;;12.00;99.90;;;12.36;100.00;101711.97;5054888;28;20061;-71
2024/03/22 03:30:08;;;;;;;47.35;23.77;;;12.00;99.90;;;12.25;100.00;101721.69;5071908;28;20040;-71
2024/03/22 03:32:36;;;;;;;52.40;22.35;;;12.00;99.90;;;12.27;100.00;101706.66;5071443;28;20405;-71
2024/03/22 03:35:05;;;;;;;48.72;23.45;;;12.00;99.90;;;12.22;100.00;101696.03;5071468;28;20645;-71
2024/03/22 03:37:31;;;;;;;49.33;23.33;;;11.90;99.90;;;12.26;100.00;101697.81;5054652;28;20056;-71
2024/03/22 03:39:58;;;;;;;49.95;22.05;;;11.90;99.90;;;12.33;100.00;101698.72;5071180;28;20041;-71
2024/03/22 03:42:25;;;;;;;42.97;20.95;;;11.90;99.90;;;11.64;100.00;101575.66;5071326;28;20036;-71
2024/03/22 03:44:52;;;;;;;39.78;19.27;;;11.90;99.90;;;12.28;100.00;101671.28;5071223;28;20044;-71
2024/03/22 03:47:19;;;;;;;50.20;20.90;;;11.90;99.90;;;12.15;100.00;101674.78;5071400;28;20082;-71
2024/03/22 03:49:48;;;;;;;49.67;19.88;;;11.90;99.90;;;12.28;100.00;101681.88;5071263;28;20452;-71
2024/03/22 03:52:14;;;;;;;46.25;19.98;;;11.90;99.90;;;12.28;100.00;101680.13;5070962;28;20387;-71
2024/03/22 03:54:42;;;;;;;45.00;20.23;;;11.90;99.90;;;12.17;100.00;101673.94;5071176;28;20056;-71
2024/03/22 03:57:08;;;;;;;48.75;19.67;;;11.90;99.90;;;12.19;100.00;101677.47;5070482;28;20041;-71
2024/03/22 03:59:36;;;;;;;43.10;20.55;;;11.90;99.90;;;12.19;100.00;101676.56;5054208;28;20060;-71
2024/03/22 04:02:02;;;;;;;42.58;20.20;;;11.80;99.90;;;12.23;100.00;101681.00;5071050;28;20105;-71
2024/03/22 04:04:30;;;;;;;44.13;22.02;;;11.90;99.90;;;12.21;100.00;101673.06;5070705;28;20044;-71
2024/03/22 04:06:58;;;;;;;49.03;21.95;;;11.90;99.90;;;12.26;100.00;101681.00;5070877;28;20090;-71
2024/03/22 04:09:25;;;;;;;45.17;22.98;;;11.90;99.90;;;12.07;100.00;101642.06;5054076;28;20036;-71
2024/03/22 04:11:51;;;;;;;46.78;22.50;;;11.90;99.90;;;12.09;100.00;101662.41;5054110;28;20055;-71
2024/03/22 04:14:19;;;;;;;50.50;22.45;;;11.90;99.90;;;12.26;100.00;101670.38;5070407;28;20032;-71
2024/03/22 04:16:45;;;;;;;60.33;24.45;;;11.90;99.90;;;12.17;100.00;101681.88;5070900;28;20397;-71
2024/03/22 04:19:12;;;;;;;58.50;24.65;;;11.80;99.90;;;12.23;100.00;101691.63;5070334;28;20044;-71
2024/03/22 04:21:39;;;;;;;56.15;25.15;;;11.80;99.90;;;12.25;100.00;101681.91;5070269;28;20048;-71
2024/03/22 04:24:08;;;;;;;57.80;23.98;;;11.90;99.90;;;12.18;100.00;101690.69;5070255;28;20036;-71
2024/03/22 04:26:34;;;;;;;50.83;24.27;;;11.90;99.90;;;12.21;100.00;101690.72;5070201;28;20130;-71
2024/03/22 04:29:01;;;;;;;50.75;24.38;;;11.90;99.90;;;12.19;100.00;101685.44;5053733;28;20059;-71
2024/03/22 04:31:28;;;;;;;47.88;24.85;;;11.90;99.90;;;12.10;100.00;101673.91;5070095;28;20037;-71
2024/03/22 04:33:55;;;;;;;59.75;25.58;;;11.80;99.90;;;12.18;100.00;101685.41;5070335;28;20435;-71
2024/03/22 04:36:22;;;;;;;58.15;25.38;;;11.80;99.90;;;12.08;100.00;101686.28;5069951;28;20037;-71
2024/03/22 04:38:49;;;;;;;55.15;25.70;;;11.80;99.90;;;12.14;100.00;101686.28;5070055;28;20037;-71
2024/03/22 04:41:18;;;;;;;51.15;24.75;;;11.80;99.90;;;12.15;100.00;101678.34;5053503;28;20048;-71
2024/03/22 04:43:45;;;;;;;53.60;24.23;;;11.90;99.90;;;12.19;100.00;101687.19;5070482;28;20090;-71
2024/03/22 04:46:12;;;;;;;51.15;24.17;;;11.80;99.90;;;12.16;100.00;101692.47;5053320;28;20036;-71
2024/03/22 04:48:40;;;;;;;57.75;24.15;;;11.80;99.90;;;12.16;100.00;101696.00;5069829;28;20083;-71
2024/03/22 04:51:06;;;;;;;54.97;25.13;;;11.90;99.90;;;12.10;100.00;101682.72;5069818;28;20048;-71
2024/03/22 04:53:33;;;;;;;54.47;24.20;;;11.80;99.90;;;11.99;100.00;101681.81;5072880;28;20047;-71
2024/03/22 04:56:00;;;;;;;46.92;23.13;;;11.70;99.90;;;12.07;100.00;101696.00;5073481;28;20040;-71
2024/03/22 04:58:29;;;;;;;45.22;22.85;;;11.70;99.90;;;12.01;100.00;101689.78;5072964;28;20036;-71
2024/03/22 05:00:58;;;;;;;51.08;23.42;;;11.70;99.90;;;12.01;100.00;101690.66;5073045;28;20051;-71
2024/03/22 05:03:25;;;;;;;52.25;23.45;;;11.70;99.90;;;12.00;100.00;101686.22;5073342;28;20040;-71
2024/03/22 05:05:51;;;;;;;49.85;22.27;;;11.70;99.90;;;11.21;100.00;101552.56;5073044;28;20089;-71
2024/03/22 05:08:19;;;;;;;48.30;23.17;;;11.70;99.90;;;11.94;100.00;101688.00;5073042;28;20043;-71
2024/03/22 05:10:45;;;;;;;49.83;24.33;;;11.60;99.90;;;11.92;100.00;101679.16;5072409;28;20092;-71
2024/03/22 05:13:13;;;;;;;57.13;24.27;;;11.60;99.90;;;11.87;100.00;101670.28;5073099;28;20043;-71
2024/03/22 05:15:41;;;;;;;54.15;25.05;;;11.60;99.90;;;11.86;100.00;101663.22;5072865;28;20044;-71
2024/03/22 05:18:08;;;;;;;53.78;25.33;;;11.60;99.90;;;11.84;100.00;101673.84;5073003;28;20566;-71
2024/03/22 05:20:34;;;;;;;62.92;26.60;;;11.50;99.90;;;11.03;100.00;101531.31;5056335;28;20050;-71
2024/03/22 05:23:02;;;;;;;61.92;27.65;;;11.50;99.90;;;11.84;100.00;101663.22;5073030;28;20601;-71
2024/03/22 05:25:29;;;;;;;59.50;28.13;;;11.50;99.90;;;11.85;100.00;101661.44;5072795;28;20575;-71
2024/03/22 05:27:56;;;;;;;57.75;27.08;;;11.60;99.90;;;11.82;100.00;101648.19;5055962;28;20060;-72
2024/03/22 05:30:23;;;;;;;57.92;27.77;;;11.50;99.90;;;11.75;100.00;101639.31;5072829;28;20036;-71
2024/03/22 05:32:52;;;;;;;57.67;28.70;;;11.50;99.90;;;11.78;100.00;101658.78;5072993;28;20044;-71
2024/03/22 05:35:18;;;;;;;57.20;29.45;;;11.50;99.90;;;11.86;100.00;101653.50;5072933;28;20594;-71
2024/03/22 05:37:46;;;;;;;55.63;30.80;;;11.50;99.90;;;11.88;100.00;101645.56;5073145;28;20079;-71
2024/03/22 05:40:13;;;;;;;58.35;29.23;;;11.50;99.90;;;11.87;100.00;101644.66;5073173;28;20040;-71
2024/03/22 05:42:40;;;;;;;59.22;28.80;;;11.50;99.90;;;11.86;100.00;101644.66;5056150;28;20044;-71
2024/03/22 05:45:08;;;;;;;58.80;28.55;;;11.60;99.90;;;11.82;100.00;101640.25;5072861;28;20040;-71
2024/03/22 05:47:37;;;;;;;54.97;27.65;;;11.50;99.90;;;11.85;100.00;101641.13;5072624;28;20040;-71
2024/03/22 05:50:08;;;;;;;53.58;27.33;;;11.50;99.90;;;11.94;100.00;101645.56;5072508;28;20511;-71
2024/03/22 05:52:36;;;;;;;57.95;28.67;;;11.60;99.90;;;11.89;100.00;101637.59;5072666;28;20036;-71
2024/03/22 05:55:02;;;;;;;53.33;26.85;;;11.60;99.90;;;11.89;100.00;101634.94;5072667;28;20524;-71
2024/03/22 05:57:30;;;;;;;58.30;28.13;;;11.60;99.90;;;11.90;100.00;101639.38;5072819;28;20511;-72
2024/03/22 05:59:56;;;;;;;54.47;25.90;;;11.60;99.90;;;11.84;100.00;101623.47;5072460;28;20044;-71
2024/03/22 06:02:24;;;;;;;54.55;26.80;;;11.60;99.90;;;11.94;100.00;101624.38;5072399;28;20477;-71
2024/03/22 06:04:50;;;;;;;60.15;27.98;;;11.60;99.90;;;11.86;100.00;101604.91;5072912;28;20535;-71
2024/03/22 06:07:19;;;;;;;55.95;28.27;;;11.60;99.90;;;11.96;100.00;101614.66;5055798;28;20794;-71
2024/03/22 06:09:45;;;;;;;58.70;28.40;;;11.60;99.90;;;11.88;100.00;101613.75;5072265;28;20385;-71
2024/03/22 06:12:14;;;;;;;56.08;27.10;;;11.60;99.90;;;11.88;100.00;101619.06;5072587;28;20040;-71
2024/03/22 06:14:40;;;;;;;55.30;28.15;;;11.50;99.90;;;11.88;100.00;101619.94;5072281;28;20036;-71
2024/03/22 06:17:08;;;;;;;53.40;26.58;;;11.50;99.90;;;12.04;100.00;101616.41;5072454;28;20640;-71
2024/03/22 06:19:35;;;;;;;56.88;27.15;;;11.70;99.90;;;11.90;100.00;101627.91;5072233;28;20493;-71
2024/03/22 06:22:03;;;;;;;56.70;26.70;;;11.70;99.90;;;12.06;100.00;101625.25;5074965;28;20412;-71
2024/03/22 06:24:31;;;;;;;54.17;25.52;;;11.70;99.90;;;12.10;100.00;101627.03;5076249;28;20036;-71
2024/03/22 06:26:59;;;;;;;58.80;25.88;;;11.80;99.90;;;12.08;100.00;101636.75;5076398;28;20427;-72
2024/03/22 06:29:25;;;;;;;50.97;24.25;;;11.80;99.90;;;12.11;100.00;101635.88;5075832;28;20447;-71
2024/03/22 06:31:52;;;;;;;53.90;24.90;;;11.80;99.90;;;12.07;100.00;101627.06;5076292;28;20396;-72
2024/03/22 06:34:19;;;;;;;45.28;23.40;;;11.80;99.90;;;12.13;100.00;101635.00;5075806;28;20413;-71
2024/03/22 06:36:47;;;;;;;48.78;23.67;;;11.80;99.90;;;12.20;100.00;101634.13;5075713;28;20044;-71
2024/03/22 06:39:14;;;;;;;53.40;23.75;;;11.80;99.90;;;12.25;100.00;101636.81;5075599;28;20350;-71
2024/03/22 06:41:43;;;;;;;49.60;22.65;;;11.90;99.90;;;12.28;100.00;101631.47;5076221;28;20123;-71
2024/03/22 06:44:11;;;;;;;41.15;19.75;;;11.90;99.90;;;12.24;100.00;101635.00;5075556;28;20113;-71
2024/03/22 06:46:40;;;;;;;47.47;20.92;;;11.90;99.90;;;12.17;100.00;101628.84;5076078;28;20378;-71
2024/03/22 06:49:06;;;;;;;41.95;19.35;;;11.80;99.90;;;12.16;100.00;101628.81;5075700;28;20093;-71
2024/03/22 06:51:34;;;;;;;52.05;19.90;;;11.90;99.90;;;12.19;100.00;101632.38;5058770;28;20048;-71
2024/03/22 06:54:00;;;;;;;49.05;19.77;;;11.80;99.90;;;12.26;100.00;101627.94;5058576;28;20048;-71
2024/03/22 06:56:27;;;;;;;41.30;19.25;;;11.90;99.90;;;12.25;100.00;101637.66;5075828;28;20093;-71
2024/03/22 06:58:55;;;;;;;46.72;19.58;;;11.90;99.90;;;12.28;100.00;101621.75;5075260;28;20036;-71
2024/03/22 07:01:23;;;;;;;48.38;20.85;;;11.90;99.90;;;12.24;100.00;101629.72;5058600;28;20047;-69
2024/03/22 07:03:50;;;;;;;50.63;20.83;;;11.90;99.90;;;11.74;100.00;101540.41;5499737;23;20058;-62
2024/03/22 07:06:17;;;;;;;49.45;20.88;;;11.90;99.90;;;12.21;100.00;101635.03;5011334;28;20052;-63
2024/03/22 07:08:45;;;;;;;44.40;19.58;;;11.90;99.90;;;12.18;100.00;101624.41;5011259;28;20108;-61
2024/03/22 07:11:11;;;;;;;41.60;19.80;;;11.90;99.90;;;12.28;100.00;101632.38;5011778;28;20452;-62
2024/03/22 07:13:39;;;;;;;48.83;20.42;;;11.90;99.90;;;12.24;100.00;101627.94;5011301;28;20126;-61
2024/03/22 07:16:07;;;;;;;39.97;19.00;;;11.90;99.90;;;12.32;100.00;101628.84;5011710;28;20533;-65
2024/03/22 07:18:34;;;;;;;43.05;18.60;;;12.00;99.90;;;12.32;100.00;101628.84;5011061;28;20510;-62
2024/03/22 07:21:02;;;;;;;44.90;19.75;;;12.00;99.90;;;12.28;100.00;101631.47;5011089;28;20475;-62
2024/03/22 07:23:29;;;;;;;46.92;19.30;;;12.00;99.90;;;12.35;100.00;101633.28;5011046;28;20041;-63
2024/03/22 07:25:55;;;;;;;41.08;17.05;;;12.00;99.90;;;11.69;100.00;101533.31;5011006;28;20042;-62
2024/03/22 07:28:23;;;;;;;46.40;19.65;;;12.00;99.90;;;12.27;100.00;101627.94;5011568;28;20037;-63
2024/03/22 07:30:49;;;;;;;43.30;17.73;;;12.00;99.90;;;12.23;100.00;101620.00;5011281;28;20038;-62
2024/03/22 07:33:18;;;;;;;41.05;16.25;;;11.90;99.90;;;12.19;100.00;101623.53;5010273;28;20053;-63
2024/03/22 07:35:44;;;;;;;41.33;17.00;;;11.90;99.90;;;12.24;100.00;101621.75;5011160;28;20050;-62
2024/03/22 07:38:12;;;;;;;39.60;15.07;;;11.90;99.90;;;12.16;100.00;101620.84;5010862;28;20038;-63
2024/03/22 07:40:38;;;;;;;46.92;16.10;;;11.90;99.90;;;12.09;100.00;101619.09;5011045;28;20506;-62
2024/03/22 07:43:06;;;;;;;36.88;16.20;;;11.80;99.90;;;12.08;100.00;101614.69;5010972;28;20084;-62
2024/03/22 07:45:34;;;;;;;40.60;15.52;;;11.80;99.90;;;12.12;100.00;101613.78;5010965;28;20042;-63
2024/03/22 07:48:02;;;;;;;40.17;15.73;;;11.80;99.90;;;12.26;100.00;101620.88;4994803;28;20045;-63
2024/03/22 07:50:30;;;;;;;48.50;17.58;;;11.90;99.90;;;12.36;100.00;101614.69;5011062;28;20046;-63
2024/03/22 07:52:57;;;;;;;42.22;16.08;;;12.00;99.90;;;12.34;100.00;101616.47;5010860;28;20050;-61
2024/03/22 07:55:24;;;;;;;54.30;17.88;;;12.00;99.90;;;12.29;100.00;101612.06;5010768;28;20038;-61
2024/03/22 07:57:52;;;;;;;45.35;17.25;;;12.00;99.90;;;12.27;100.00;101614.69;5010829;28;20042;-64
2024/03/22 08:00:19;;;;;;;47.63;17.55;;;11.90;99.90;;;12.29;100.00;101617.34;5011217;28;20057;-63
2024/03/22 08:02:47;;;;;;;46.70;17.58;;;11.90;99.90;;;12.40;100.00;101616.47;5010767;28;20049;-65
2024/03/22 08:05:13;;;;;;;41.47;16.38;;;12.00;99.90;;;12.29;100.00;101597.00;5014218;28;20041;-64
2024/03/22 08:07:43;;;;;;;43.33;16.20;;;12.10;99.90;;;12.48;100.00;101616.47;5014105;28;20046;-64
2024/03/22 08:10:10;;;;;;;47.00;17.25;;;12.10;99.90;;;12.48;100.00;101619.13;5013875;28;20038;-63
2024/03/22 08:12:37;;;;;;;44.88;16.67;;;12.10;99.90;;;12.38;100.00;101612.03;5014473;28;20631;-64
2024/03/22 08:15:05;;;;;;;43.70;15.88;;;12.10;99.90;;;12.28;100.00;101621.75;5014391;28;20045;-62
2024/03/22 08:17:32;;;;;;;43.45;16.60;;;12.00;99.90;;;12.30;100.00;101624.41;5015331;28;20148;-64
2024/03/22 08:19:59;;;;;;;39.33;16.65;;;12.00;99.90;;;12.28;100.00;101628.81;5015196;28;20379;-65
2024/03/22 08:22:26;;;;;;;41.25;16.80;;;12.00;99.90;;;12.31;100.00;101616.44;5014443;28;20052;-63
2024/03/22 08:24:55;;;;;;;41.53;16.77;;;12.00;99.90;;;11.78;100.00;101536.88;5014105;28;20041;-63
2024/03/22 08:27:24;;;;;;;38.80;17.25;;;11.90;99.90;;;12.33;100.00;101625.28;5013431;28;20091;-67
2024/03/22 08:29:50;;;;;;;46.35;16.67;;;12.00;99.90;;;12.28;100.00;101621.75;5013573;28;20041;-63
2024/03/22 08:32:18;;;;;;;45.55;17.92;;;12.00;99.90;;;12.27;100.00;101611.16;4997145;28;20045;-63
2024/03/22 08:34:45;;;;;;;49.65;17.23;;;11.90;99.90;;;12.23;100.00;101618.22;5013583;28;20041;-63
2024/03/22 08:37:13;;;;;;;44.40;16.42;;;12.00;99.90;;;12.38;100.00;101610.28;5013434;28;20116;-63
2024/03/22 08:39:39;;;;;;;45.05;18.05;;;12.00;99.90;;;12.36;100.00;101613.81;5013002;28;20044;-64
2024/03/22 08:42:09;;;;;;;43.13;16.85;;;12.00;99.90;;;12.32;100.00;101617.34;5012992;28;20052;-62
2024/03/22 08:44:35;;;;;;;43.53;16.67;;;12.00;99.90;;;12.32;100.00;101606.72;5013077;28;20053;-63
2024/03/22 08:47:03;;;;;;;41.35;17.50;;;12.00;99.90;;;11.72;100.00;101493.56;5012973;28;20069;-64
2024/03/22 08:49:30;;;;;;;45.70;16.65;;;12.00;99.90;;;12.35;100.00;101609.41;5012908;28;20045;-66
2024/03/22 08:51:57;;;;;;;41.30;17.92;;;12.00;99.90;;;12.36;100.00;101605.84;4996593;28;20057;-64
2024/03/22 08:54:24;;;;;;;43.45;16.75;;;12.00;99.90;;;12.46;100.00;101611.16;5012814;28;20541;-65
2024/03/22 08:56:51;;;;;;;46.70;17.02;;;12.10;99.90;;;12.54;100.00;101608.50;5012975;28;20406;-64
2024/03/22 08:59:19;;;;;;;39.15;16.20;;;12.20;99.90;;;12.52;100.00;101615.59;5012628;28;20045;-64
2024/03/22 09:01:48;;;;;;;39.90;16.75;;;12.20;99.90;;;12.49;100.00;101604.94;4996527;28;20057;-63
2024/03/22 09:04:15;;;;;;;42.20;16.20;;;12.20;99.90;;;12.51;100.00;101604.06;5012919;28;20084;-62
2024/03/22 09:06:42;;;;;;;42.40;15.65;;;12.10;99.90;;;12.63;100.00;101603.19;5012513;28;20041;-62
2024/03/22 09:09:09;;;;;;;40.47;16.65;;;12.30;99.90;;;12.51;100.00;101598.78;5013016;28;20041;-62
2024/03/22 09:11:36;;;;;;;46.95;16.05;;;12.20;99.90;;;12.54;100.00;101606.72;5012657;28;20714;-63
2024/03/22 09:14:03;;;;;;;51.08;17.13;;;12.20;99.90;;;12.55;100.00;101604.97;5012813;28;20487;-65
2024/03/22 09:16:32;;;;;;;44.30;15.90;;;12.20;99.90;;;12.53;100.00;101602.31;5013017;28;20119;-62
2024/03/22 09:18:58;;;;;;;43.28;15.50;;;12.20;99.90;;;12.57;100.00;101596.13;5013923;28;20044;-61
2024/03/22 09:21:25;;;;;;;41.60;15.23;;;12.20;99.90;;;12.66;100.00;101608.47;5014530;28;20069;-61
2024/03/22 09:23:52;;;;;;;38.00;15.68;;;12.30;99.90;;;12.79;100.00;101596.97;5014478;28;20045;-62
2024/03/22 09:26:19;;;;;;;46.05;15.23;;;12.40;99.90;;;12.71;100.00;101601.41;5013392;28;20098;-61
2024/03/22 09:28:46;;;;;;;42.83;14.68;;;12.40;99.90;;;12.48;100.00;101568.72;4998028;28;20060;-60
2024/03/22 09:31:14;;;;;;;39.00;15.27;;;12.40;99.90;;;12.69;100.00;101604.06;5014493;28;20045;-64
2024/03/22 09:33:42;;;;;;;36.58;13.30;;;12.40;99.90;;;12.59;100.00;101599.66;5014291;28;20049;-63
2024/03/22 09:36:10;;;;;;;37.20;14.70;;;12.30;99.90;;;12.57;100.00;101600.53;5014695;28;20046;-63
2024/03/22 09:38:37;;;;;;;33.83;14.48;;;12.30;99.90;;;12.69;100.00;101598.75;4998004;28;20045;-63
2024/03/22 09:41:05;;;;;;;36.55;14.70;;;12.30;99.90;;;12.77;100.00;101593.44;4998133;28;20053;-63
2024/03/22 09:43:32;;;;;;;36.65;14.80;;;12.40;99.90;;;12.81;100.00;101596.97;5013215;28;20079;-64
2024/03/22 09:46:00;;;;;;;34.83;14.27;;;12.40;99.90;;;12.82;100.00;101598.72;5012353;28;20053;-64
2024/03/22 09:48:28;;;;;;;34.03;13.63;;;12.50;99.90;;;12.81;100.00;101595.19;5012465;28;20045;-64
2024/03/22 09:50:56;;;;;;;33.90;14.23;;;12.50;99.90;;;12.73;100.00;101586.38;5013009;28;20057;-64
2024/03/22 09:53:25;;;;;;;37.47;14.57;;;12.40;99.90;;;12.78;100.00;101589.00;5012520;28;20033;-65